Shirahamamaru — JG4872 — position and weather

sailwx.info

Track history (hours):
 
Tides and Currents Weather Stations Pressure Air Temp Water Temp Dewpoint Dewpoint Depression Visibility Wind Speed Wind Dir Waves Ship Positions

Shirahamamaru

Last reported at 2016-May-31 23:33 UTC. Time now 2016-May-31 23:48 UTC.
Position N 35°10' E 139°49'.

Length 79 m; draft 3.2 m.

Type: Passenger vessel. MMSI: 431000239.

Date/timePositionNaut miles runAvg speedWind from/ knotsBaromVisibWave heightAir tempDewpointWater temp
2016-May-31 23:33N 35°10' E 139°49'6 5.9
2016-May-31 22:33N 35°13' E 139°43'6 5.6
2016-May-31 21:34N 35°10' E 139°49'6 5.5
2016-May-31 20:33N 35°13' E 139°43'0 0.0
2016-May-31 11:33N 35°13' E 139°43'4 3.6
2016-May-31 10:33N 35°12' E 139°47'0 0.3
2016-May-31 09:33N 35°12' E 139°47'3 3.2
2016-May-31 08:33N 35°13' E 139°44'5 5.3
2016-May-31 07:33N 35°10' E 139°49'6 5.7
2016-May-31 06:33N 35°13' E 139°43'0 0.1
2016-May-31 04:33N 35°13' E 139°43'6 5.8
2016-May-31 03:33N 35°10' E 139°49'6 5.8
2016-May-31 02:33N 35°13' E 139°43'6 5.9
2016-May-31 01:33N 35°10' E 139°49'6 5.9
2016-May-31 00:33N 35°13' E 139°43'6 5.9
2016-May-30 23:33N 35°10' E 139°49'6 5.9
2016-May-30 22:33N 35°13' E 139°43'5 5.3
2016-May-30 21:33N 35°11' E 139°49'5 5.3
2016-May-30 20:33N 35°13' E 139°43'0 0.0
2016-May-30 11:33N 35°13' E 139°43'4 3.7
2016-May-30 10:34N 35°11' E 139°47'0 0.0
2016-May-30 09:34N 35°11' E 139°47'3 3.1
2016-May-30 08:33N 35°13' E 139°44'5 5.2
2016-May-30 07:33N 35°10' E 139°49'6 5.9
2016-May-30 06:34N 35°13' E 139°43'6 5.9
2016-May-30 05:34N 35°10' E 139°49'6 5.8
2016-May-30 04:33N 35°13' E 139°43'6 5.9
2016-May-30 03:33N 35°10' E 139°49'6 5.9
2016-May-30 02:34N 35°13' E 139°43'6 5.8
2016-May-30 01:33N 35°10' E 139°49'6 5.9
2016-May-30 00:33N 35°13' E 139°43'6 5.9
2016-May-29 23:34N 35°10' E 139°49'6 5.8
2016-May-29 22:33N 35°13' E 139°43'5 5.4
2016-May-29 21:34N 35°10' E 139°49'5 5.4
2016-May-29 20:34N 35°13' E 139°43'3 0.3
2016-May-29 11:34N 35°12' E 139°46'1 1.3
2016-May-29 10:34N 35°13' E 139°45'4 4.1
2016-May-29 09:33N 35°10' E 139°49'6 5.8
2016-May-29 08:33N 35°13' E 139°43'6 5.9
2016-May-29 07:34N 35°10' E 139°49'6 5.8
2016-May-29 06:33N 35°13' E 139°43'6 5.9
2016-May-29 05:34N 35°10' E 139°49'6 5.9
2016-May-29 04:34N 35°13' E 139°43'6 5.9
2016-May-29 03:34N 35°10' E 139°49'6 5.9
2016-May-29 02:34N 35°13' E 139°43'6 5.9
2016-May-29 01:34N 35°10' E 139°49'6 5.8
2016-May-29 00:33N 35°13' E 139°43'6 5.9
2016-May-28 23:34N 35°10' E 139°49'6 5.9
2016-May-28 22:34N 35°13' E 139°43'5 5.4
2016-May-28 21:34N 35°10' E 139°49'5 5.3
2016-May-28 20:33N 35°13' E 139°43'0 0.0
2016-May-28 11:33N 35°13' E 139°43'3 3.3
2016-May-28 10:34N 35°12' E 139°47'1 0.9
2016-May-28 09:33N 35°12' E 139°47'3 3.5
2016-May-28 08:33N 35°13' E 139°43'6 5.5
2016-May-28 07:33N 35°10' E 139°49'6 5.9
2016-May-28 06:33N 35°13' E 139°43'6 5.9
2016-May-28 05:33N 35°10' E 139°49'6 5.9
2016-May-28 04:33N 35°13' E 139°43'6 5.8
2016-May-28 03:33N 35°10' E 139°49'6 5.9
2016-May-28 02:33N 35°13' E 139°43'6 5.9
2016-May-28 01:33N 35°10' E 139°49'6 5.9
2016-May-28 00:34N 35°13' E 139°43'6 5.8
2016-May-27 23:33N 35°10' E 139°49'6 5.9
2016-May-27 22:33N 35°13' E 139°43'5 5.4
2016-May-27 21:33N 35°10' E 139°49'5 5.4
2016-May-27 20:33N 35°13' E 139°43'0 0.0
2016-May-27 11:33N 35°13' E 139°43'4 3.7
2016-May-27 10:33N 35°11' E 139°47'0 0.0
2016-May-27 09:33N 35°11' E 139°47'3 3.0
2016-May-27 08:33N 35°13' E 139°44'5 5.1
2016-May-27 07:33N 35°10' E 139°49'6 5.8
2016-May-27 06:33N 35°13' E 139°43'6 5.9
2016-May-27 05:33N 35°10' E 139°49'6 5.9
2016-May-27 04:33N 35°13' E 139°43'6 5.9
2016-May-27 03:33N 35°10' E 139°49'6 5.9
2016-May-27 02:33N 35°13' E 139°43'6 5.8
2016-May-27 01:33N 35°10' E 139°49'6 5.9
2016-May-27 00:33N 35°13' E 139°43'6 5.9
2016-May-26 23:33N 35°10' E 139°49'6 5.8
2016-May-26 22:33N 35°13' E 139°43'6 5.8
2016-May-26 21:33N 35°10' E 139°49'6 5.7
2016-May-26 20:33N 35°13' E 139°43'0 0.0
2016-May-26 11:33N 35°13' E 139°43'4 3.7
2016-May-26 10:34N 35°12' E 139°47'0 0.2
2016-May-26 09:34N 35°12' E 139°47'3 3.0
2016-May-26 08:33N 35°13' E 139°44'5 5.2
2016-May-26 07:33N 35°10' E 139°49'6 5.8
2016-May-26 06:33N 35°13' E 139°43'6 5.9
2016-May-26 05:33N 35°10' E 139°49'6 5.9
2016-May-26 04:34N 35°13' E 139°43'6 5.8
2016-May-26 03:33N 35°10' E 139°49'6 5.8
2016-May-26 02:33N 35°13' E 139°43'6 5.8
2016-May-26 01:33N 35°10' E 139°49'6 5.9
2016-May-26 00:33N 35°13' E 139°43'6 5.7
2016-May-25 23:32N 35°10' E 139°49'6 6.0
2016-May-25 22:34N 35°13' E 139°43'6 5.4
2016-May-25 21:33N 35°10' E 139°49'6 5.6
2016-May-25 20:33N 35°13' E 139°43'0 0.0
2016-May-25 11:33N 35°13' E 139°43'4 3.7
2016-May-25 10:33N 35°11' E 139°47'0 0.2
2016-May-25 09:33N 35°12' E 139°47'3 3.2
2016-May-25 08:32N 35°13' E 139°43'5 5.4
2016-May-25 07:33N 35°10' E 139°49'6 5.7
2016-May-25 06:33N 35°13' E 139°43'6 5.6
2016-May-25 05:31N 35°10' E 139°49'6 6.1
2016-May-25 04:33N 35°13' E 139°43'6 5.8
2016-May-25 03:32N 35°10' E 139°49'6 5.9
2016-May-25 02:32N 35°13' E 139°43'6 6.0
2016-May-25 01:33N 35°10' E 139°49'6 5.8
2016-May-25 00:33N 35°13' E 139°43'6 5.9
2016-May-24 23:33N 35°10' E 139°49'6 5.9
2016-May-24 22:33N 35°13' E 139°43'5 5.4
2016-May-24 21:33N 35°10' E 139°49'5 5.5
2016-May-24 20:33N 35°13' E 139°43'0 0.0
2016-May-24 11:33N 35°13' E 139°43'4 3.9
2016-May-24 10:33N 35°11' E 139°47'0 0.4
2016-May-24 09:33N 35°12' E 139°47'3 3.1
2016-May-24 08:33N 35°13' E 139°44'5 5.2
2016-May-24 07:33N 35°10' E 139°49'6 5.7
2016-May-24 06:33N 35°13' E 139°43'6 5.9
2016-May-24 05:33N 35°10' E 139°49'6 5.8
2016-May-24 04:33N 35°13' E 139°43'6 5.9
2016-May-24 03:33N 35°10' E 139°49'6 5.8
2016-May-24 02:33N 35°13' E 139°43'6 5.9
2016-May-24 01:33N 35°10' E 139°49'6 5.9
2016-May-24 00:33N 35°13' E 139°43'6 5.9
2016-May-23 23:33N 35°10' E 139°49'6 5.9
2016-May-23 22:33N 35°13' E 139°43'6 5.8
2016-May-23 21:33N 35°10' E 139°49'6 5.8
2016-May-23 20:33N 35°13' E 139°43'0 0.0
2016-May-23 11:33N 35°13' E 139°43'4 3.6
2016-May-23 10:33N 35°11' E 139°47'0 0.3
2016-May-23 09:33N 35°12' E 139°47'3 3.4
2016-May-23 08:33N 35°13' E 139°43'5 5.4
2016-May-23 07:34N 35°10' E 139°49'6 5.8
2016-May-23 06:33N 35°13' E 139°43'6 5.8
2016-May-23 05:33N 35°10' E 139°49'6 5.9
2016-May-23 04:33N 35°13' E 139°43'6 5.9
2016-May-23 03:33N 35°10' E 139°49'6 5.9
2016-May-23 02:34N 35°13' E 139°43'6 5.8
2016-May-23 01:33N 35°10' E 139°49'6 5.9
2016-May-23 00:33N 35°13' E 139°43'6 5.9
2016-May-22 23:33N 35°10' E 139°49'6 5.8
2016-May-22 22:33N 35°13' E 139°43'6 5.8
2016-May-22 21:33N 35°10' E 139°49'6 5.8
2016-May-22 20:33N 35°13' E 139°43'0 0.0
2016-May-22 11:34N 35°13' E 139°43'2 2.2
2016-May-22 10:33N 35°12' E 139°45'4 3.6
2016-May-22 09:33N 35°10' E 139°49'5 5.3
2016-May-22 08:31N 35°13' E 139°43'6 5.7
2016-May-22 07:33N 35°10' E 139°49'5 5.3
2016-May-22 06:33N 35°13' E 139°44'4 3.9
2016-May-22 05:33N 35°11' E 139°48'3 3.1
2016-May-22 04:33N 35°13' E 139°45'3 3.4
2016-May-22 03:33N 35°11' E 139°48'4 4.2
2016-May-22 02:33N 35°13' E 139°44'4 4.2
2016-May-22 01:33N 35°11' E 139°48'4 4.3
2016-May-22 00:33N 35°13' E 139°44'  
Track history (hours):
 
Tides and Currents Weather Stations Pressure Air Temp Water Temp Dewpoint Dewpoint Depression Visibility Wind Speed Wind Dir Waves Ship Positions

Shirahamamaru

Last reported at 2016-May-31 23:33 UTC. Time now 2016-May-31 23:48 UTC.
Position N 35°10' E 139°49'.

Length 79 m; draft 3.2 m.

Type: Passenger vessel. MMSI: 431000239.

Date/timePositionNaut miles runAvg speedWind from/ knotsBaromVisibWave heightAir tempDewpointWater temp
2016-May-31 23:33N 35°10' E 139°49'6 5.9
2016-May-31 22:33N 35°13' E 139°43'6 5.6
2016-May-31 21:34N 35°10' E 139°49'6 5.5
2016-May-31 20:33N 35°13' E 139°43'0 0.0
2016-May-31 11:33N 35°13' E 139°43'4 3.6
2016-May-31 10:33N 35°12' E 139°47'0 0.3
2016-May-31 09:33N 35°12' E 139°47'3 3.2
2016-May-31 08:33N 35°13' E 139°44'5 5.3
2016-May-31 07:33N 35°10' E 139°49'6 5.7
2016-May-31 06:33N 35°13' E 139°43'0 0.1
2016-May-31 04:33N 35°13' E 139°43'6 5.8
2016-May-31 03:33N 35°10' E 139°49'6 5.8
2016-May-31 02:33N 35°13' E 139°43'6 5.9
2016-May-31 01:33N 35°10' E 139°49'6 5.9
2016-May-31 00:33N 35°13' E 139°43'6 5.9
2016-May-30 23:33N 35°10' E 139°49'6 5.9
2016-May-30 22:33N 35°13' E 139°43'5 5.3
2016-May-30 21:33N 35°11' E 139°49'5 5.3
2016-May-30 20:33N 35°13' E 139°43'0 0.0
2016-May-30 11:33N 35°13' E 139°43'4 3.7
2016-May-30 10:34N 35°11' E 139°47'0 0.0
2016-May-30 09:34N 35°11' E 139°47'3 3.1
2016-May-30 08:33N 35°13' E 139°44'5 5.2
2016-May-30 07:33N 35°10' E 139°49'6 5.9
2016-May-30 06:34N 35°13' E 139°43'6 5.9
2016-May-30 05:34N 35°10' E 139°49'6 5.8
2016-May-30 04:33N 35°13' E 139°43'6 5.9
2016-May-30 03:33N 35°10' E 139°49'6 5.9
2016-May-30 02:34N 35°13' E 139°43'6 5.8
2016-May-30 01:33N 35°10' E 139°49'6 5.9
2016-May-30 00:33N 35°13' E 139°43'6 5.9
2016-May-29 23:34N 35°10' E 139°49'6 5.8
2016-May-29 22:33N 35°13' E 139°43'5 5.4
2016-May-29 21:34N 35°10' E 139°49'5 5.4
2016-May-29 20:34N 35°13' E 139°43'3 0.3
2016-May-29 11:34N 35°12' E 139°46'1 1.3
2016-May-29 10:34N 35°13' E 139°45'4 4.1
2016-May-29 09:33N 35°10' E 139°49'6 5.8
2016-May-29 08:33N 35°13' E 139°43'6 5.9
2016-May-29 07:34N 35°10' E 139°49'6 5.8
2016-May-29 06:33N 35°13' E 139°43'6 5.9
2016-May-29 05:34N 35°10' E 139°49'6 5.9
2016-May-29 04:34N 35°13' E 139°43'6 5.9
2016-May-29 03:34N 35°10' E 139°49'6 5.9
2016-May-29 02:34N 35°13' E 139°43'6 5.9
2016-May-29 01:34N 35°10' E 139°49'6 5.8
2016-May-29 00:33N 35°13' E 139°43'6 5.9
2016-May-28 23:34N 35°10' E 139°49'6 5.9
2016-May-28 22:34N 35°13' E 139°43'5 5.4
2016-May-28 21:34N 35°10' E 139°49'5 5.3
2016-May-28 20:33N 35°13' E 139°43'0 0.0
2016-May-28 11:33N 35°13' E 139°43'3 3.3
2016-May-28 10:34N 35°12' E 139°47'1 0.9
2016-May-28 09:33N 35°12' E 139°47'3 3.5
2016-May-28 08:33N 35°13' E 139°43'6 5.5
2016-May-28 07:33N 35°10' E 139°49'6 5.9
2016-May-28 06:33N 35°13' E 139°43'6 5.9
2016-May-28 05:33N 35°10' E 139°49'6 5.9
2016-May-28 04:33N 35°13' E 139°43'6 5.8
2016-May-28 03:33N 35°10' E 139°49'6 5.9
2016-May-28 02:33N 35°13' E 139°43'6 5.9
2016-May-28 01:33N 35°10' E 139°49'6 5.9
2016-May-28 00:34N 35°13' E 139°43'6 5.8
2016-May-27 23:33N 35°10' E 139°49'6 5.9
2016-May-27 22:33N 35°13' E 139°43'5 5.4
2016-May-27 21:33N 35°10' E 139°49'5 5.4
2016-May-27 20:33N 35°13' E 139°43'0 0.0
2016-May-27 11:33N 35°13' E 139°43'4 3.7
2016-May-27 10:33N 35°11' E 139°47'0 0.0
2016-May-27 09:33N 35°11' E 139°47'3 3.0
2016-May-27 08:33N 35°13' E 139°44'5 5.1
2016-May-27 07:33N 35°10' E 139°49'6 5.8
2016-May-27 06:33N 35°13' E 139°43'6 5.9
2016-May-27 05:33N 35°10' E 139°49'6 5.9
2016-May-27 04:33N 35°13' E 139°43'6 5.9
2016-May-27 03:33N 35°10' E 139°49'6 5.9
2016-May-27 02:33N 35°13' E 139°43'6 5.8
2016-May-27 01:33N 35°10' E 139°49'6 5.9
2016-May-27 00:33N 35°13' E 139°43'6 5.9
2016-May-26 23:33N 35°10' E 139°49'6 5.8
2016-May-26 22:33N 35°13' E 139°43'6 5.8
2016-May-26 21:33N 35°10' E 139°49'6 5.7
2016-May-26 20:33N 35°13' E 139°43'0 0.0
2016-May-26 11:33N 35°13' E 139°43'4 3.7
2016-May-26 10:34N 35°12' E 139°47'0 0.2
2016-May-26 09:34N 35°12' E 139°47'3 3.0
2016-May-26 08:33N 35°13' E 139°44'5 5.2
2016-May-26 07:33N 35°10' E 139°49'6 5.8
2016-May-26 06:33N 35°13' E 139°43'6 5.9
2016-May-26 05:33N 35°10' E 139°49'6 5.9
2016-May-26 04:34N 35°13' E 139°43'6 5.8
2016-May-26 03:33N 35°10' E 139°49'6 5.8
2016-May-26 02:33N 35°13' E 139°43'6 5.8
2016-May-26 01:33N 35°10' E 139°49'6 5.9
2016-May-26 00:33N 35°13' E 139°43'6 5.7
2016-May-25 23:32N 35°10' E 139°49'6 6.0
2016-May-25 22:34N 35°13' E 139°43'6 5.4
2016-May-25 21:33N 35°10' E 139°49'6 5.6
2016-May-25 20:33N 35°13' E 139°43'0 0.0
2016-May-25 11:33N 35°13' E 139°43'4 3.7
2016-May-25 10:33N 35°11' E 139°47'0 0.2
2016-May-25 09:33N 35°12' E 139°47'3 3.2
2016-May-25 08:32N 35°13' E 139°43'5 5.4
2016-May-25 07:33N 35°10' E 139°49'6 5.7
2016-May-25 06:33N 35°13' E 139°43'6 5.6
2016-May-25 05:31N 35°10' E 139°49'6 6.1
2016-May-25 04:33N 35°13' E 139°43'6 5.8
2016-May-25 03:32N 35°10' E 139°49'6 5.9
2016-May-25 02:32N 35°13' E 139°43'6 6.0
2016-May-25 01:33N 35°10' E 139°49'6 5.8
2016-May-25 00:33N 35°13' E 139°43'6 5.9
2016-May-24 23:33N 35°10' E 139°49'6 5.9
2016-May-24 22:33N 35°13' E 139°43'5 5.4
2016-May-24 21:33N 35°10' E 139°49'5 5.5
2016-May-24 20:33N 35°13' E 139°43'0 0.0
2016-May-24 11:33N 35°13' E 139°43'4 3.9
2016-May-24 10:33N 35°11' E 139°47'0 0.4
2016-May-24 09:33N 35°12' E 139°47'3 3.1
2016-May-24 08:33N 35°13' E 139°44'5 5.2
2016-May-24 07:33N 35°10' E 139°49'6 5.7
2016-May-24 06:33N 35°13' E 139°43'6 5.9
2016-May-24 05:33N 35°10' E 139°49'6 5.8
2016-May-24 04:33N 35°13' E 139°43'6 5.9
2016-May-24 03:33N 35°10' E 139°49'6 5.8
2016-May-24 02:33N 35°13' E 139°43'6 5.9
2016-May-24 01:33N 35°10' E 139°49'6 5.9
2016-May-24 00:33N 35°13' E 139°43'6 5.9
2016-May-23 23:33N 35°10' E 139°49'6 5.9
2016-May-23 22:33N 35°13' E 139°43'6 5.8
2016-May-23 21:33N 35°10' E 139°49'6 5.8
2016-May-23 20:33N 35°13' E 139°43'0 0.0
2016-May-23 11:33N 35°13' E 139°43'4 3.6
2016-May-23 10:33N 35°11' E 139°47'0 0.3
2016-May-23 09:33N 35°12' E 139°47'3 3.4
2016-May-23 08:33N 35°13' E 139°43'5 5.4
2016-May-23 07:34N 35°10' E 139°49'6 5.8
2016-May-23 06:33N 35°13' E 139°43'6 5.8
2016-May-23 05:33N 35°10' E 139°49'6 5.9
2016-May-23 04:33N 35°13' E 139°43'6 5.9
2016-May-23 03:33N 35°10' E 139°49'6 5.9
2016-May-23 02:34N 35°13' E 139°43'6 5.8
2016-May-23 01:33N 35°10' E 139°49'6 5.9
2016-May-23 00:33N 35°13' E 139°43'6 5.9
2016-May-22 23:33N 35°10' E 139°49'6 5.8
2016-May-22 22:33N 35°13' E 139°43'6 5.8
2016-May-22 21:33N 35°10' E 139°49'6 5.8
2016-May-22 20:33N 35°13' E 139°43'0 0.0
2016-May-22 11:34N 35°13' E 139°43'2 2.2
2016-May-22 10:33N 35°12' E 139°45'4 3.6
2016-May-22 09:33N 35°10' E 139°49'5 5.3
2016-May-22 08:31N 35°13' E 139°43'6 5.7
2016-May-22 07:33N 35°10' E 139°49'5 5.3
2016-May-22 06:33N 35°13' E 139°44'4 3.9
2016-May-22 05:33N 35°11' E 139°48'3 3.1
2016-May-22 04:33N 35°13' E 139°45'3 3.4
2016-May-22 03:33N 35°11' E 139°48'4 4.2
2016-May-22 02:33N 35°13' E 139°44'4 4.2
2016-May-22 01:33N 35°11' E 139°48'4 4.3
2016-May-22 00:33N 35°13' E 139°44'  

Dump ship's entire track history